Oakland County International Airport
KPTK : rendu visible

Aérodrome :











RETROUVEZ-NOUS SUR...

 
LOGIN :

S'inscrire | Disclaimer

   EN    FR    IT 

 









Légende :    VFR   VFR Marginal   IFR   IFR Intensif   IFR Très Intensif
Visi : 
Plafond : 
>= 8 km
>= 3000ft
5 à 8 km
1000 à 3000 ft
1500m à 5 km
500 à 1000 ft
800 à 1500m
200 à 500 ft
< 800m
< 200 ft
Symboles :   Orages  Brouillard  Fortes neiges  Fortes précipitations  Vent > 20 kt






- Altitude de l'aérodrome : 980 ft


KPTK - Oakland County International

DERNIER METAR :
  • 100853Z AUTO 28017G24KT 10SM OVC019 01/M03 A2967 RMK AO2 PK WND 27027/0811 SLP051 T00111033 51031

METARs EXPIRÉS :
  • 100805Z AUTO 27016G25KT 10SM BKN023 OVC036 02/M03 A2965 RMK AO2 T00171028
  • 100753Z AUTO 27016G27KT 10SM SCT024 OVC034 02/M03 A2965 RMK AO2 PK WND 27030/0711 SLP044 T00221028
  • 100737Z AUTO 27017G25KT 10SM FEW024 SCT030 OVC037 02/M02 A2964 RMK AO2 PK WND 27030/0711 T00221022
  • 100653Z AUTO 28020G33KT 10SM OVC024 03/M02 A2961 RMK AO2 PK WND 27037/0613 SLP031 T00281017
  • 100614Z AUTO 28024G37KT 10SM OVC015 03/M01 A2959 RMK AO2 PK WND 27037/0613 T00281006

TAF KPTK
Valide du 10 à 06h jusqu'au 11 à 06h UTC


100539Z 1006/1106 26018G28KT P6SM SCT018 OVC025
FM100900 28016G26KT P6SM BKN028 OVC040
FM101200 29012G22KT P6SM -SHSN SCT028 OVC045
FM101900 27014KT P6SM BKN045
FM110000 25010KT P6SM SCT045



MET'MAP, la Météo Aéronautique d'un coup d'oeil ! - Copyright ORBIFLY Décembre 2007 - Disclaimer

ORBIFLY MET'MAP TEAM :

Programmation & Développement : Alexandra Zaïnal
Sur une idée originale de : Baudouin d'Aumeries
Assistance à la programmation : Marc-Olivier Méhu
Soutien technique & logistique : Manuel Goepfert

Contact : metmap@orbifly.com




SOURCES & CREDITS :

   NOAA       Earth
Advisory